Terminal Aerodrome Forecast
Issued by NWS

Home | Current Version | Previous Version | Text Only | Print | Product List | Glossary Off
Versions: 1 2 3 4 5 6 7 8 9 10 11 12 13 14

982
FTUS43 KGRB 190520
TAFCWA
TAF
KCWA 190520Z 1906/2006 32012G20KT P6SM OVC025
     FM190900 30010G16KT P6SM SCT035
     FM192000 26009KT P6SM BKN090
     FM200200 23004KT P6SM SCT090
      AMD LTD TO CLD VIS AND WIND TIL 191100=

USA.gov is the U.S. government's official web portal to all federal, state and local government web resources and services.